createdAt,value
2019-04-22T00:00:34.568Z,14.90
2019-04-22T00:03:22.094Z,14.90
2019-04-22T00:06:34.134Z,14.90
2019-04-22T00:09:24.210Z,14.90
2019-04-22T00:12:16.252Z,15.00
2019-04-22T00:14:52.511Z,15.10
2019-04-22T00:17:55.229Z,15.20
2019-04-22T00:20:37.005Z,15.20
2019-04-22T00:23:27.750Z,15.20
2019-04-22T00:26:16.461Z,15.20
2019-04-22T00:29:10.148Z,15.10
2019-04-22T00:31:52.808Z,15.10
2019-04-22T00:34:46.455Z,15.10
2019-04-22T00:37:37.157Z,15.10
2019-04-22T00:40:32.319Z,15.20
2019-04-22T00:43:13.937Z,15.10
2019-04-22T00:46:06.691Z,15.20
2019-04-22T00:49:18.187Z,15.20
2019-04-22T00:51:44.787Z,15.20
2019-04-22T00:54:29.570Z,15.30
2019-04-22T00:57:19.311Z,15.30
2019-04-22T01:00:06.746Z,15.30
2019-04-22T01:02:54.586Z,15.30
2019-04-22T01:05:42.228Z,15.30
2019-04-22T01:08:40.391Z,15.30
2019-04-22T01:11:26.625Z,15.30
2019-04-22T01:14:06.255Z,15.20
2019-04-22T01:19:52.345Z,15.20
2019-04-22T01:22:38.233Z,15.10
2019-04-22T01:25:20.520Z,15.10
2019-04-22T01:28:00.953Z,15.10
2019-04-22T01:30:45.969Z,15.00
2019-04-22T01:33:33.155Z,15.00
2019-04-22T01:36:33.520Z,15.00
2019-04-22T01:39:31.942Z,15.00
2019-04-22T01:42:16.832Z,15.00
2019-04-22T01:45:05.644Z,14.90
2019-04-22T01:47:57.907Z,14.90
2019-04-22T01:50:48.558Z,14.80
2019-04-22T01:53:33.702Z,14.80
2019-04-22T01:56:20.917Z,14.70
2019-04-22T01:58:59.251Z,14.70
2019-04-22T02:02:00.653Z,14.70
2019-04-22T02:05:10.966Z,14.60
2019-04-22T02:07:39.964Z,14.60
2019-04-22T02:10:29.301Z,14.60
2019-04-22T02:13:15.215Z,14.50
2019-04-22T02:16:10.162Z,14.50
2019-04-22T02:18:53.112Z,14.50
2019-04-22T02:21:38.481Z,14.50
2019-04-22T02:24:33.328Z,14.40
2019-04-22T02:30:27.840Z,14.50
2019-04-22T02:33:20.019Z,14.50
2019-04-22T02:36:15.109Z,14.40
2019-04-22T02:38:51.662Z,14.50
2019-04-22T02:41:28.869Z,14.50
2019-04-22T02:56:35.975Z,14.30
2019-04-22T03:02:19.493Z,14.30
2019-04-22T03:05:13.260Z,14.30
2019-04-22T03:07:58.236Z,14.30
2019-04-22T03:11:22.317Z,14.30
2019-04-22T03:13:40.346Z,14.30
2019-04-22T03:19:22.852Z,14.20
2019-04-22T03:24:46.282Z,14.20
2019-04-22T03:36:06.748Z,14.00
2019-04-22T03:39:06.296Z,14.00
2019-04-22T03:42:01.149Z,14.00
2019-04-22T03:44:31.865Z,14.00
2019-04-22T03:47:26.336Z,13.90
2019-04-22T03:52:58.122Z,13.90
2019-04-22T03:58:28.601Z,13.80
2019-04-22T04:01:33.664Z,13.80
2019-04-22T04:12:42.008Z,13.70
2019-04-22T04:18:09.209Z,13.70
2019-04-22T04:21:18.780Z,13.60
2019-04-22T04:24:01.237Z,13.60
2019-04-22T04:32:30.936Z,13.70
2019-04-22T04:37:51.929Z,13.70
2019-04-22T04:40:51.195Z,13.70
2019-04-22T04:43:31.477Z,13.70
2019-04-22T04:46:29.994Z,13.60
2019-04-22T04:49:09.618Z,13.60
2019-04-22T05:03:10.648Z,13.80
2019-04-22T05:09:01.431Z,13.90
2019-04-22T05:14:19.205Z,14.00
2019-04-22T05:17:13.104Z,14.10
2019-04-22T05:19:56.805Z,14.20
2019-04-22T05:22:44.793Z,14.50
2019-04-22T05:25:28.366Z,15.50
2019-04-22T05:28:15.062Z,15.90
2019-04-22T05:31:08.626Z,16.40
2019-04-22T05:33:56.752Z,16.80
2019-04-22T05:39:28.514Z,17.70
2019-04-22T05:42:21.754Z,17.80
2019-04-22T05:45:11.972Z,18.30
2019-04-22T05:47:59.346Z,18.80
2019-04-22T05:50:45.367Z,19.10
2019-04-22T05:53:32.514Z,19.70
2019-04-22T05:56:34.311Z,20.00
2019-04-22T05:59:14.735Z,20.20
2019-04-22T06:04:52.051Z,20.80
2019-04-22T06:07:31.333Z,21.00
2019-04-22T06:10:31.082Z,20.50
2019-04-22T06:13:13.952Z,19.80
2019-04-22T06:15:58.717Z,19.80
2019-04-22T06:18:47.291Z,19.00
2019-04-22T06:21:46.367Z,18.10
2019-04-22T06:24:27.536Z,17.50
2019-04-22T06:27:21.998Z,16.90
2019-04-22T06:30:04.363Z,16.70
2019-04-22T06:32:53.817Z,16.90
2019-04-22T06:35:45.784Z,18.00
2019-04-22T06:41:21.306Z,18.90
2019-04-22T06:44:16.240Z,17.90
2019-04-22T06:46:56.441Z,17.40
2019-04-22T06:49:52.586Z,17.20
2019-04-22T06:52:29.424Z,17.00
2019-04-22T06:55:23.290Z,19.10
2019-04-22T06:58:10.170Z,20.10
2019-04-22T07:01:04.371Z,20.50
2019-04-22T07:03:53.068Z,21.00
2019-04-22T07:06:43.735Z,21.10
2019-04-22T07:12:17.290Z,19.10
2019-04-22T07:15:12.774Z,19.00
2019-04-22T07:17:58.258Z,18.80
2019-04-22T07:20:47.275Z,18.50
2019-04-22T07:26:13.963Z,19.10
2019-04-22T07:29:10.422Z,17.60
2019-04-22T07:34:49.279Z,18.20
2019-04-22T07:40:16.813Z,18.20
2019-04-22T07:43:13.732Z,20.20
2019-04-22T07:45:53.753Z,22.70
2019-04-22T07:51:36.809Z,22.20
2019-04-22T07:54:19.660Z,21.10
2019-04-22T08:00:05.524Z,20.40
2019-04-22T08:02:50.387Z,22.20
2019-04-22T08:05:45.483Z,21.50
2019-04-22T08:08:33.961Z,21.10
2019-04-22T08:11:30.905Z,22.50
2019-04-22T08:14:06.866Z,23.60
2019-04-22T08:17:01.506Z,23.40
2019-04-22T08:19:43.227Z,23.70
2019-04-22T08:22:26.102Z,26.00
2019-04-22T08:25:20.902Z,27.00
2019-04-22T08:28:13.338Z,27.40
2019-04-22T08:30:54.834Z,28.40
2019-04-22T08:33:44.044Z,30.10
2019-04-22T08:36:32.027Z,31.10
2019-04-22T08:39:21.020Z,31.20
2019-04-22T08:42:17.951Z,31.60
2019-04-22T08:45:09.358Z,30.50
2019-04-22T08:47:51.303Z,29.40
2019-04-22T08:50:33.967Z,29.40
2019-04-22T08:53:24.546Z,31.20
2019-04-22T08:56:23.463Z,31.80
2019-04-22T08:59:12.173Z,31.60
2019-04-22T09:01:45.321Z,31.00
2019-04-22T09:04:39.073Z,30.00
2019-04-22T09:07:29.168Z,29.70
2019-04-22T09:10:21.895Z,29.30
2019-04-22T09:15:51.686Z,25.70
2019-04-22T09:18:41.677Z,23.70
2019-04-22T09:21:35.885Z,22.60
2019-04-22T09:24:19.642Z,22.10
2019-04-22T09:27:11.471Z,22.00
2019-04-22T09:30:13.414Z,21.60
2019-04-22T09:32:44.760Z,21.40
2019-04-22T09:35:37.617Z,21.40
2019-04-22T09:38:31.497Z,21.30
2019-04-22T09:41:14.136Z,21.20
2019-04-22T09:43:58.306Z,21.30
2019-04-22T09:46:47.125Z,21.40
2019-04-22T09:49:46.860Z,21.60
2019-04-22T09:52:20.661Z,21.60
2019-04-22T09:55:15.499Z,21.60
2019-04-22T09:58:01.014Z,21.80
2019-04-22T10:00:58.043Z,21.80
2019-04-22T10:03:40.939Z,21.90
2019-04-22T10:06:38.152Z,22.10
2019-04-22T10:09:38.096Z,22.20
2019-04-22T10:12:02.564Z,22.10
2019-04-22T10:17:47.830Z,21.90
2019-04-22T10:20:31.185Z,21.90
2019-04-22T10:23:20.091Z,21.80
2019-04-22T10:26:08.962Z,21.90
2019-04-22T10:29:01.086Z,21.90
2019-04-22T10:31:43.656Z,22.00
2019-04-22T10:34:17.872Z,21.90
2019-04-22T10:37:00.006Z,22.00
2019-04-22T10:39:52.951Z,22.00
2019-04-22T10:42:43.387Z,22.20
2019-04-22T10:45:30.387Z,22.30
2019-04-22T10:48:18.271Z,22.30
2019-04-22T10:51:06.454Z,22.50
2019-04-22T10:53:53.630Z,22.60
2019-04-22T10:56:41.074Z,22.70
2019-04-22T10:59:28.908Z,22.60
2019-04-22T11:02:15.583Z,22.60
2019-04-22T11:05:02.181Z,22.70
2019-04-22T11:07:53.777Z,22.70
2019-04-22T11:10:56.653Z,22.70
2019-04-22T11:13:26.277Z,22.80
2019-04-22T11:16:13.805Z,22.80
2019-04-22T11:19:01.423Z,22.70
2019-04-22T11:21:59.917Z,22.50
2019-04-22T11:24:37.052Z,22.50
2019-04-22T11:27:25.244Z,22.70
2019-04-22T11:30:13.424Z,22.80
2019-04-22T11:33:00.526Z,22.90
2019-04-22T11:35:47.970Z,22.90
2019-04-22T11:38:37.714Z,22.80
2019-04-22T11:41:23.545Z,22.80
2019-04-22T11:44:11.483Z,22.80
2019-04-22T11:46:59.186Z,22.80
2019-04-22T11:49:47.943Z,23.00
2019-04-22T11:52:35.066Z,23.10
2019-04-22T11:55:22.519Z,23.10
2019-04-22T11:58:09.002Z,23.10
2019-04-22T12:00:57.060Z,23.10
2019-04-22T12:03:44.214Z,23.10
2019-04-22T12:06:31.949Z,23.30
2019-04-22T12:09:21.535Z,23.40
2019-04-22T12:12:09.626Z,23.50
2019-04-22T12:14:56.572Z,23.60
2019-04-22T12:17:44.740Z,23.60
2019-04-22T12:20:32.959Z,23.70
2019-04-22T12:23:21.018Z,23.70
2019-04-22T12:26:13.097Z,23.70
2019-04-22T12:28:57.285Z,23.80
2019-04-22T12:31:45.241Z,23.80
2019-04-22T12:34:33.341Z,23.90
2019-04-22T12:37:27.365Z,23.80
2019-04-22T12:40:08.768Z,23.80
2019-04-22T12:42:55.695Z,23.80
2019-04-22T12:45:42.575Z,23.70
2019-04-22T12:48:31.003Z,23.70
2019-04-22T12:51:18.978Z,23.80
2019-04-22T12:54:06.848Z,24.00
2019-04-22T12:56:53.530Z,24.10
2019-04-22T12:59:41.530Z,24.00
2019-04-22T13:02:29.268Z,24.00
2019-04-22T13:05:16.380Z,24.10
2019-04-22T13:08:02.967Z,24.20
2019-04-22T13:10:58.395Z,24.10
2019-04-22T13:13:38.728Z,24.10
2019-04-22T13:16:26.952Z,24.00
2019-04-22T13:19:17.023Z,24.00
2019-04-22T13:22:02.904Z,24.10
2019-04-22T13:24:50.008Z,24.30
2019-04-22T13:27:37.123Z,24.40
2019-04-22T13:30:23.838Z,24.30
2019-04-22T13:33:10.823Z,24.30
2019-04-22T13:35:57.562Z,24.20
2019-04-22T13:38:45.006Z,24.30
2019-04-22T13:41:39.952Z,24.40
2019-04-22T13:44:20.847Z,24.40
2019-04-22T13:47:26.854Z,24.40
2019-04-22T13:55:56.123Z,24.40
2019-04-22T13:58:38.511Z,24.40
2019-04-22T14:01:12.713Z,24.40
2019-04-22T14:04:04.910Z,24.20
2019-04-22T14:06:52.525Z,24.10
2019-04-22T14:09:40.109Z,24.10
2019-04-22T14:12:26.808Z,24.30
2019-04-22T14:15:13.893Z,24.30
2019-04-22T14:18:03.026Z,24.40
2019-04-22T14:20:51.025Z,24.50
2019-04-22T14:23:38.474Z,24.70
2019-04-22T14:26:27.091Z,24.80
2019-04-22T14:29:15.478Z,24.90
2019-04-22T14:32:09.110Z,24.80
2019-04-22T14:34:51.171Z,24.80
2019-04-22T14:37:38.505Z,24.80
2019-04-22T14:40:28.115Z,24.70
2019-04-22T14:43:37.370Z,24.80
2019-04-22T14:46:26.421Z,24.60
2019-04-22T14:49:22.298Z,24.60
2019-04-22T14:52:10.732Z,24.70
2019-04-22T14:54:41.669Z,24.60
2019-04-22T14:57:18.953Z,24.60
2019-04-22T15:00:06.127Z,24.60
2019-04-22T15:02:52.874Z,24.70
2019-04-22T15:05:40.034Z,24.80
2019-04-22T15:08:26.938Z,24.70
2019-04-22T15:11:14.969Z,24.80
2019-04-22T15:14:03.162Z,25.40
2019-04-22T15:16:55.139Z,24.80
2019-04-22T15:19:47.741Z,24.50
2019-04-22T15:22:34.709Z,24.50
2019-04-22T15:25:22.770Z,24.40
2019-04-22T15:28:09.481Z,24.20
2019-04-22T15:30:57.463Z,24.10
2019-04-22T15:33:48.010Z,24.10
2019-04-22T15:36:32.720Z,24.10
2019-04-22T15:39:20.540Z,24.10
2019-04-22T15:42:14.566Z,24.00
2019-04-22T15:44:56.025Z,23.90
2019-04-22T15:47:44.040Z,23.90
2019-04-22T15:50:31.009Z,23.90
2019-04-22T15:53:20.072Z,23.90
2019-04-22T15:56:08.413Z,23.90
2019-04-22T15:58:55.498Z,24.00
2019-04-22T16:01:42.925Z,24.10
2019-04-22T16:04:30.828Z,24.20
2019-04-22T16:07:20.455Z,24.20
2019-04-22T16:10:05.974Z,24.30
2019-04-22T16:13:02.784Z,24.30
2019-04-22T16:15:42.531Z,24.30
2019-04-22T16:18:30.516Z,24.30
2019-04-22T16:21:30.249Z,24.30
2019-04-22T16:24:24.671Z,24.30
2019-04-22T16:27:22.859Z,24.30
2019-04-22T16:30:09.792Z,24.20
2019-04-22T16:32:57.401Z,24.20
2019-04-22T16:35:44.931Z,24.20
2019-04-22T16:38:32.934Z,24.10
2019-04-22T16:41:21.190Z,24.10
2019-04-22T16:44:08.921Z,24.00
2019-04-22T16:46:57.299Z,23.90
2019-04-22T16:49:45.557Z,23.80
2019-04-22T16:52:34.279Z,23.80
2019-04-22T16:55:21.253Z,23.70
2019-04-22T16:58:08.075Z,23.60
2019-04-22T17:00:54.858Z,23.50
2019-04-22T17:03:58.565Z,23.50
2019-04-22T17:06:47.812Z,23.40
2019-04-22T17:09:35.740Z,23.30
2019-04-22T17:12:23.936Z,23.30
2019-04-22T17:15:14.205Z,23.20
2019-04-22T17:17:59.479Z,23.10
2019-04-22T17:20:46.525Z,23.10
2019-04-22T17:23:33.877Z,23.10
2019-04-22T17:26:20.776Z,23.10
2019-04-22T17:29:08.423Z,23.10
2019-04-22T17:32:04.302Z,23.00
2019-04-22T17:34:49.593Z,23.00
2019-04-22T17:37:38.904Z,22.90
2019-04-22T17:40:44.869Z,22.90
2019-04-22T17:43:44.071Z,22.90
2019-04-22T17:46:19.372Z,22.80
2019-04-22T17:49:31.539Z,22.70
2019-04-22T17:52:21.524Z,22.70
2019-04-22T17:55:04.495Z,22.60
2019-04-22T17:57:52.662Z,22.50
2019-04-22T18:00:41.913Z,22.40
2019-04-22T18:03:22.765Z,22.40
2019-04-22T18:06:08.850Z,22.30
2019-04-22T18:09:08.157Z,22.30
2019-04-22T18:12:07.380Z,22.20
2019-04-22T18:14:55.925Z,22.10
2019-04-22T18:17:52.610Z,22.00
2019-04-22T18:20:27.569Z,22.00
2019-04-22T18:23:06.513Z,21.90
2019-04-22T18:26:05.327Z,21.80
2019-04-22T18:28:54.304Z,21.80
2019-04-22T18:31:35.855Z,21.70
2019-04-22T18:34:25.550Z,21.60
2019-04-22T18:37:18.447Z,21.60
2019-04-22T18:40:10.236Z,21.50
2019-04-22T18:43:06.623Z,21.40
2019-04-22T18:45:54.825Z,21.30
2019-04-22T18:48:34.986Z,21.20
2019-04-22T18:51:29.135Z,21.20
2019-04-22T18:54:24.237Z,21.20
2019-04-22T18:57:13.795Z,21.10
2019-04-22T18:59:45.279Z,21.00
2019-04-22T19:02:32.122Z,20.90
2019-04-22T19:05:30.284Z,20.90
2019-04-22T19:08:29.222Z,20.80
2019-04-22T19:11:16.663Z,20.70
2019-04-22T19:14:10.720Z,20.70
2019-04-22T19:16:54.445Z,20.60
2019-04-22T19:19:43.623Z,20.60
2019-04-22T19:22:41.928Z,20.60
2019-04-22T19:25:12.170Z,20.60
2019-04-22T19:28:19.132Z,20.50
2019-04-22T19:31:02.648Z,20.50
2019-04-22T19:33:52.341Z,20.40
2019-04-22T19:36:36.473Z,20.40
2019-04-22T19:39:17.445Z,20.40
2019-04-22T19:42:16.761Z,20.40
2019-04-22T19:45:02.592Z,20.40
2019-04-22T19:47:58.235Z,20.30
2019-04-22T19:50:45.251Z,20.20
2019-04-22T19:53:29.701Z,20.10
2019-04-22T19:56:11.524Z,20.10
2019-04-22T19:59:02.094Z,20.00
2019-04-22T20:02:01.081Z,20.00
2019-04-22T20:05:02.770Z,19.80
2019-04-22T20:07:41.817Z,19.80
2019-04-22T20:10:30.056Z,19.70
2019-04-22T20:13:30.992Z,19.60
2019-04-22T20:16:01.951Z,19.60
2019-04-22T20:19:06.958Z,19.50
2019-04-22T20:21:51.948Z,19.40
2019-04-22T20:24:24.608Z,19.40
2019-04-22T20:27:43.157Z,19.30
2019-04-22T20:30:17.339Z,19.20
2019-04-22T20:32:59.319Z,19.10
2019-04-22T20:35:51.844Z,19.00
2019-04-22T20:38:42.530Z,19.00
2019-04-22T20:41:25.164Z,18.90
2019-04-22T20:44:22.615Z,18.80
2019-04-22T20:47:09.262Z,18.80
2019-04-22T20:50:04.482Z,18.80
2019-04-22T20:52:54.332Z,18.70
2019-04-22T20:55:40.632Z,18.70
2019-04-22T20:58:28.547Z,18.60
2019-04-22T21:01:06.715Z,18.50
2019-04-22T21:03:50.939Z,18.40
2019-04-22T21:06:47.798Z,18.30
2019-04-22T21:09:41.127Z,18.30
2019-04-22T21:12:21.044Z,18.20
2019-04-22T21:15:25.534Z,18.10
2019-04-22T21:18:07.732Z,18.00
2019-04-22T21:21:07.076Z,17.90
2019-04-22T21:23:54.514Z,17.90
2019-04-22T21:26:43.754Z,17.80
2019-04-22T21:29:32.127Z,17.70
2019-04-22T21:32:23.974Z,17.60
2019-04-22T21:35:21.572Z,17.50
2019-04-22T21:38:01.868Z,17.40
2019-04-22T21:40:47.506Z,17.40
2019-04-22T21:43:42.168Z,17.30
2019-04-22T21:46:32.485Z,17.20
2019-04-22T21:49:21.691Z,17.10
2019-04-22T21:52:08.000Z,17.00
2019-04-22T21:54:59.725Z,16.90
2019-04-22T21:57:51.010Z,16.90
2019-04-22T22:03:30.105Z,15.30
2019-04-22T22:06:13.177Z,16.60
2019-04-22T22:09:15.242Z,16.60
2019-04-22T22:11:53.955Z,16.50
2019-04-22T22:14:54.559Z,16.50
2019-04-22T22:17:35.313Z,16.40
2019-04-22T22:20:22.792Z,16.30
2019-04-22T22:23:25.412Z,16.20
2019-04-22T22:26:06.838Z,16.20
2019-04-22T22:29:24.590Z,16.10
2019-04-22T22:31:46.372Z,16.10
2019-04-22T22:34:35.688Z,16.00
2019-04-22T22:37:14.350Z,16.00
2019-04-22T22:39:57.707Z,16.00
2019-04-22T22:42:44.464Z,15.90
2019-04-22T22:45:37.090Z,15.90
2019-04-22T22:48:41.451Z,15.80
2019-04-22T22:51:34.004Z,15.70
2019-04-22T22:54:18.472Z,15.70
2019-04-22T22:57:10.394Z,15.60
2019-04-22T22:59:50.183Z,15.60
2019-04-22T23:02:59.564Z,15.60
2019-04-22T23:05:34.079Z,15.60
2019-04-22T23:08:20.427Z,15.60
2019-04-22T23:11:05.145Z,15.60
2019-04-22T23:13:56.816Z,15.50
2019-04-22T23:16:31.234Z,15.50
2019-04-22T23:19:11.101Z,15.40
2019-04-22T23:22:05.547Z,15.40
2019-04-22T23:25:11.815Z,15.40
2019-04-22T23:27:55.224Z,15.40
2019-04-22T23:30:37.850Z,15.40
2019-04-22T23:33:54.619Z,15.30
2019-04-22T23:36:37.069Z,15.30
2019-04-22T23:39:41.120Z,15.30
2019-04-22T23:42:23.091Z,15.30
2019-04-22T23:45:15.749Z,15.20
2019-04-22T23:47:47.331Z,15.10
2019-04-22T23:50:54.153Z,15.10
2019-04-22T23:53:57.243Z,15.00
2019-04-22T23:56:25.110Z,15.00
2019-04-22T23:59:27.520Z,14.90
